createdAt,value
2023-06-09T00:04:34.807Z,4.25
2023-06-09T00:09:38.513Z,4.00
2023-06-09T00:14:41.459Z,5.00
2023-06-09T00:19:47.653Z,5.00
2023-06-09T00:24:51.226Z,4.50
2023-06-09T00:29:54.125Z,5.00
2023-06-09T00:34:58.378Z,5.00
2023-06-09T00:40:01.376Z,4.00
2023-06-09T00:45:07.617Z,5.00
2023-06-09T00:50:13.843Z,4.50
2023-06-09T00:55:19.394Z,4.00
2023-06-09T01:00:25.836Z,4.25
2023-06-09T01:05:30.791Z,5.00
2023-06-09T01:10:42.335Z,4.75
2023-06-09T01:15:50.223Z,3.75
2023-06-09T01:21:07.605Z,4.50
2023-06-09T01:26:13.008Z,4.50
2023-06-09T01:31:17.373Z,4.00
2023-06-09T01:36:20.305Z,5.00
2023-06-09T01:41:26.407Z,4.25
2023-06-09T01:46:30.641Z,4.00
2023-06-09T01:51:42.344Z,4.50
2023-06-09T01:56:49.066Z,5.00
2023-06-09T02:01:54.806Z,3.50
2023-06-09T02:06:58.868Z,4.00
2023-06-09T02:12:03.203Z,5.00
2023-06-09T02:17:06.408Z,4.25
2023-06-09T02:22:10.114Z,4.25
2023-06-09T02:27:14.279Z,4.50
2023-06-09T02:32:18.343Z,4.50
2023-06-09T02:37:21.162Z,5.00
2023-06-09T02:42:25.420Z,4.50
2023-06-09T02:47:28.460Z,5.00
2023-06-09T02:52:32.459Z,5.00
2023-06-09T02:57:37.755Z,5.75
2023-06-09T03:02:42.287Z,5.50
2023-06-09T03:07:45.620Z,4.00
2023-06-09T03:12:50.217Z,4.50
2023-06-09T03:17:54.127Z,4.00
2023-06-09T03:22:59.140Z,5.75
2023-06-09T03:28:04.144Z,5.00
2023-06-09T03:33:12.186Z,4.00
2023-06-09T03:38:16.521Z,4.75
2023-06-09T03:43:20.952Z,6.00
2023-06-09T03:48:24.494Z,5.50
2023-06-09T03:53:28.482Z,5.00
2023-06-09T03:58:33.476Z,6.00
2023-06-09T04:03:36.966Z,4.00
2023-06-09T04:08:40.829Z,4.50
2023-06-09T04:13:45.840Z,4.00
2023-06-09T04:18:48.816Z,5.50
2023-06-09T04:23:51.750Z,4.00
2023-06-09T04:28:55.969Z,4.75
2023-06-09T04:34:07.042Z,5.50
2023-06-09T04:39:10.441Z,6.25
2023-06-09T04:44:14.770Z,4.00
2023-06-09T04:49:19.745Z,5.25
2023-06-09T04:54:23.450Z,4.00
2023-06-09T04:59:29.867Z,5.75
2023-06-09T05:04:33.121Z,4.50
2023-06-09T05:09:37.589Z,6.50
2023-06-09T05:14:43.842Z,6.00
2023-06-09T05:19:47.081Z,7.00
2023-06-09T05:24:51.796Z,6.00
2023-06-09T05:29:56.338Z,5.00
2023-06-09T05:35:01.473Z,5.00
2023-06-09T05:40:05.740Z,8.75
2023-06-09T05:45:11.297Z,6.75
2023-06-09T05:50:14.151Z,5.75
2023-06-09T05:55:18.137Z,9.25
2023-06-09T06:00:23.501Z,9.60
2023-06-09T06:05:26.334Z,6.75
2023-06-09T06:10:29.330Z,8.75
2023-06-09T06:15:33.525Z,9.25
2023-06-09T06:20:36.453Z,7.50
2023-06-09T06:25:42.472Z,8.50
2023-06-09T06:30:47.047Z,6.75
2023-06-09T06:35:49.976Z,6.00
2023-06-09T06:40:53.010Z,6.50
2023-06-09T06:45:57.395Z,5.50
2023-06-09T06:51:00.291Z,5.00
2023-06-09T06:56:03.208Z,5.75
2023-06-09T07:01:08.169Z,5.50
2023-06-09T07:06:11.619Z,6.75
2023-06-09T07:11:15.649Z,9.00
2023-06-09T07:16:20.381Z,7.00
2023-06-09T07:21:23.195Z,7.00
2023-06-09T07:26:26.233Z,8.00
2023-06-09T07:31:31.851Z,7.75
2023-06-09T07:36:38.797Z,6.00
2023-06-09T07:41:42.503Z,7.25
2023-06-09T07:46:46.836Z,8.25
2023-06-09T07:51:51.375Z,6.75
2023-06-09T07:56:54.505Z,7.00
2023-06-09T08:01:58.717Z,5.75
2023-06-09T08:07:01.861Z,5.75
2023-06-09T08:12:07.428Z,5.75
2023-06-09T08:17:12.000Z,5.50
2023-06-09T08:22:15.454Z,6.00
2023-06-09T08:27:18.293Z,6.00
2023-06-09T08:32:22.726Z,7.00
2023-06-09T08:37:26.679Z,7.00
2023-06-09T08:42:33.294Z,7.00
2023-06-09T08:47:39.035Z,7.00
2023-06-09T08:52:43.192Z,5.75
2023-06-09T08:57:46.444Z,7.50
2023-06-09T09:02:51.041Z,8.50
2023-06-09T09:07:54.879Z,5.50
2023-06-09T09:13:00.498Z,7.75
2023-06-09T09:18:06.243Z,6.25
2023-06-09T09:23:09.148Z,6.00
2023-06-09T09:28:13.549Z,5.00
2023-06-09T09:33:21.548Z,7.75
2023-06-09T09:38:25.843Z,7.50
2023-06-09T09:43:30.676Z,7.00
2023-06-09T09:48:38.510Z,6.00
2023-06-09T09:53:45.594Z,6.00
2023-06-09T09:58:52.417Z,5.50
2023-06-09T10:03:58.357Z,6.00
2023-06-09T10:09:01.728Z,5.00
2023-06-09T10:14:05.581Z,5.00
2023-06-09T10:19:10.337Z,4.75
2023-06-09T10:24:15.029Z,4.75
2023-06-09T10:29:18.853Z,5.75
2023-06-09T10:34:24.291Z,6.50
2023-06-09T10:39:32.725Z,5.00
2023-06-09T10:44:44.665Z,6.25
2023-06-09T10:49:50.886Z,5.50
2023-06-09T10:55:13.005Z,6.00
2023-06-09T11:00:17.092Z,3.50
2023-06-09T11:05:22.923Z,6.00
2023-06-09T11:10:28.409Z,6.00
2023-06-09T11:16:02.346Z,7.00
2023-06-09T11:21:18.130Z,6.00
2023-06-09T11:26:23.237Z,5.00
2023-06-09T11:31:27.922Z,6.00
2023-06-09T11:36:33.490Z,6.00
2023-06-09T11:41:36.706Z,8.00
2023-06-09T11:46:52.590Z,6.25
2023-06-09T11:52:04.300Z,5.00
2023-06-09T11:57:07.757Z,5.25
2023-06-09T12:02:13.230Z,6.25
2023-06-09T12:07:19.258Z,6.00
2023-06-09T12:12:22.232Z,4.75
2023-06-09T12:17:26.927Z,4.75
2023-06-09T12:22:40.781Z,6.00
2023-06-09T12:27:43.577Z,5.50
2023-06-09T12:32:46.822Z,5.00
2023-06-09T12:37:51.168Z,6.00
2023-06-09T12:42:53.994Z,4.00
2023-06-09T12:47:57.028Z,5.00
2023-06-09T12:53:01.284Z,5.50
2023-06-09T12:58:05.107Z,4.25
2023-06-09T13:03:11.970Z,4.00
2023-06-09T13:08:16.411Z,4.75
2023-06-09T13:13:19.259Z,4.50
2023-06-09T13:18:22.091Z,4.00
2023-06-09T13:23:26.362Z,3.50
2023-06-09T13:28:29.580Z,3.50
2023-06-09T13:33:32.377Z,4.00
2023-06-09T13:38:38.847Z,4.75
2023-06-09T13:43:51.907Z,3.00
2023-06-09T13:49:04.866Z,3.75
2023-06-09T13:54:09.360Z,4.00
2023-06-09T13:59:12.205Z,4.25
2023-06-09T14:04:15.845Z,4.00
2023-06-09T14:09:20.420Z,3.25
2023-06-09T14:14:23.305Z,4.25
2023-06-09T14:19:26.241Z,3.00
2023-06-09T14:24:30.411Z,3.00
2023-06-09T14:29:33.622Z,3.25
2023-06-09T14:34:36.543Z,4.75
2023-06-09T14:39:40.898Z,4.25
2023-06-09T14:44:43.690Z,3.00
2023-06-09T14:49:46.582Z,4.50
2023-06-09T14:54:52.288Z,3.00
2023-06-09T14:59:55.060Z,3.00
2023-06-09T15:04:59.252Z,3.75
2023-06-09T15:10:03.693Z,3.25
2023-06-09T15:15:07.447Z,3.00
2023-06-09T15:20:11.741Z,3.00
2023-06-09T15:25:16.062Z,2.75
2023-06-09T15:30:18.883Z,3.25
2023-06-09T15:35:21.922Z,2.75
2023-06-09T15:40:26.285Z,3.00
2023-06-09T15:45:29.165Z,2.50
2023-06-09T15:50:32.009Z,2.50
2023-06-09T15:55:36.334Z,2.00
2023-06-09T16:00:39.197Z,2.00
2023-06-09T16:05:43.431Z,1.50
2023-06-09T16:10:48.526Z,2.00
2023-06-09T16:15:51.794Z,2.75
2023-06-09T16:20:54.752Z,3.00
2023-06-09T16:25:58.887Z,2.50
2023-06-09T16:31:01.821Z,1.00
2023-06-09T16:36:06.306Z,2.00
2023-06-09T16:41:10.568Z,3.00
2023-06-09T16:46:13.481Z,2.00
2023-06-09T16:51:17.839Z,2.00
2023-06-09T16:56:22.086Z,2.00
2023-06-09T17:01:25.094Z,2.00
2023-06-09T17:06:28.005Z,1.25
2023-06-09T17:11:32.494Z,3.00
2023-06-09T17:16:35.483Z,2.00
2023-06-09T17:21:39.317Z,1.00
2023-06-09T17:26:43.561Z,3.00
2023-06-09T17:31:46.351Z,1.25
2023-06-09T17:36:49.380Z,2.00
2023-06-09T17:41:53.790Z,2.00
2023-06-09T17:46:56.692Z,2.00
2023-06-09T17:51:59.521Z,1.75
2023-06-09T17:57:04.277Z,2.00
2023-06-09T18:02:09.354Z,2.00
2023-06-09T18:07:12.361Z,3.00
2023-06-09T18:12:17.705Z,2.00
2023-06-09T18:17:20.651Z,1.50
2023-06-09T18:22:24.572Z,1.25
2023-06-09T18:27:29.059Z,3.00
2023-06-09T18:32:32.270Z,1.50
2023-06-09T18:37:35.215Z,3.00
2023-06-09T18:42:40.626Z,2.00
2023-06-09T18:47:43.850Z,2.00
2023-06-09T18:52:46.724Z,3.00
2023-06-09T18:57:50.905Z,1.00
2023-06-09T19:02:53.977Z,1.50
2023-06-09T19:07:57.236Z,2.00
2023-06-09T19:13:02.634Z,3.00
2023-06-09T19:18:07.550Z,2.00
2023-06-09T19:23:10.739Z,1.25
2023-06-09T19:28:15.087Z,3.25
2023-06-09T19:33:22.265Z,3.00
2023-06-09T19:38:27.742Z,2.50
2023-06-09T19:43:31.906Z,1.75
2023-06-09T19:48:34.886Z,3.00
2023-06-09T19:53:37.685Z,2.50
2023-06-09T19:58:43.138Z,2.50
2023-06-09T20:03:46.022Z,2.00
2023-06-09T20:08:48.943Z,2.00
2023-06-09T20:13:53.825Z,1.75
2023-06-09T20:18:56.776Z,2.50
2023-06-09T20:23:59.819Z,2.00
2023-06-09T20:29:04.111Z,3.00
2023-06-09T20:34:07.143Z,2.00
2023-06-09T20:39:11.386Z,2.00
2023-06-09T20:44:16.304Z,2.50
2023-06-09T20:49:19.663Z,2.75
2023-06-09T20:54:22.634Z,4.00
2023-06-09T20:59:26.795Z,4.00
2023-06-09T21:04:30.615Z,4.00
2023-06-09T21:09:33.765Z,3.25
2023-06-09T21:14:37.907Z,3.50
2023-06-09T21:19:42.888Z,3.75
2023-06-09T21:24:46.366Z,3.00
2023-06-09T21:29:50.602Z,5.00
2023-06-09T21:34:53.760Z,4.00
2023-06-09T21:39:56.617Z,3.00
2023-06-09T21:45:00.796Z,3.00
2023-06-09T21:50:04.432Z,3.00
2023-06-09T21:55:08.967Z,4.00
2023-06-09T22:00:16.043Z,3.00
2023-06-09T22:05:19.016Z,3.00
2023-06-09T22:10:22.213Z,3.00
2023-06-09T22:15:27.190Z,3.50
2023-06-09T22:20:31.238Z,3.00
2023-06-09T22:25:34.157Z,3.00
2023-06-09T22:30:38.337Z,3.25
2023-06-09T22:35:41.375Z,3.25
2023-06-09T22:40:44.272Z,3.00
2023-06-09T22:45:48.497Z,3.00
2023-06-09T22:50:52.341Z,3.00
2023-06-09T22:55:55.189Z,3.00
2023-06-09T23:00:59.414Z,4.00
2023-06-09T23:06:04.216Z,3.00
2023-06-09T23:11:07.400Z,2.00
2023-06-09T23:16:11.782Z,3.00
2023-06-09T23:21:14.677Z,3.00
2023-06-09T23:26:17.555Z,3.00
2023-06-09T23:31:22.741Z,3.00
2023-06-09T23:36:28.977Z,3.00
2023-06-09T23:41:32.074Z,3.00
2023-06-09T23:46:36.614Z,3.75
2023-06-09T23:51:39.507Z,3.00
2023-06-09T23:56:42.288Z,2.25
